Meteo Giornale » Osservazioni meteo Australia » Alice Springs Aerodrome
ore: 15:30 - Osservazioni Meteo Alice Springs Aerodrome
Lat. 23° 48' S Lon. 133° 53' E Alt. 545 metri s.l.m.
29 °C
Molto Nuvoloso
Temp. 24 Ore
8 °C
29 °C
Ovest/Nord-Ovest
7.4 Km/h
Dew point 1 °C
Umidità 16 %
Visibilità 10 Km
Il sole sorge alle ore 06:45
Il sole tramonta alle ore 18:23
| Data e Ora | Cielo e Fenomeni | T °C | DP °C | Um. % | Pres. hPa | Vis. km | Vento km/h | |
|---|---|---|---|---|---|---|---|---|
| Oggi h: 15:30 | Molto Nuvoloso | 29 | 1 | 16 | 1019 | 10 | O/NO 7.4 | |
| Oggi h: 15:00 | Molto Nuvoloso | 29 | 1 | 16 | 1020 | 10 | O 13 | |
| Oggi h: 14:30 | Molto Nuvoloso | 29 | 1 | 16 | 1020 | 10 | O 13 | |
| Oggi h: 14:00 | Molto Nuvoloso | 29 | 3 | 18 | 1021 | 10 | O 14.8 | |
| Oggi h: 13:30 | Nuvoloso | 29 | 2 | 17 | 1021 | 10 | NO 11.1 | |
| Oggi h: 13:00 | Nuvoloso | 28 | 3 | 20 | 1022 | 10 | O 9.3 | |
| Oggi h: 12:30 | Sereno | 28 | 1 | 17 | 1022 | 10 | NO 20.3 | |
| Oggi h: 12:00 | Sereno | 28 | 2 | 18 | 1023 | 10 | NO 11.1 | |
| Oggi h: 11:30 | Sereno | 28 | 3 | 20 | 1023 | 10 | NO 11.1 | |
| Oggi h: 11:00 | Sereno | 26 | 2 | 20 | 1024 | 10 | N 16.7 | |
| Oggi h: 10:30 | Sereno | 26 | 4 | 24 | 1024 | 10 | N 14.8 | |
| Oggi h: 10:00 | Sereno | 24 | 6 | 31 | 1024 | 10 | N 11.1 | |
| Oggi h: 09:30 | Sereno | 22 | 5 | 32 | 1024 | 10 | N 0 | |
| Oggi h: 09:00 | Sereno | 19 | 8 | 48 | 1024 | 10 | N 0 | |
| Oggi h: 08:30 | Sereno | 16 | 9 | 63 | 1024 | 10 | N 0 | |
| Oggi h: 08:00 | Sereno | 13 | 9 | 76 | 1024 | 10 | N 0 | |
| Oggi h: 07:30 | Sereno | 10 | 7 | 81 | 1024 | 10 | N 0 | |
| Oggi h: 07:00 | Sereno | 8 | 6 | 87 | 1023 | 10 | N 0 | |
| Oggi h: 06:30 | Sereno | 8 | 5 | 81 | 1023 | 10 | N 0 | |
| Oggi h: 06:00 | Sereno | 8 | 5 | 81 | 1023 | 10 | N 0 | |
| Oggi h: 05:30 | Sereno | 9 | 5 | 75 | 1023 | 10 | N 0 | |
| Oggi h: 05:00 | Sereno | 8 | 5 | 81 | 1023 | 10 | N 0 | |
| Oggi h: 04:30 | Sereno | 9 | 5 | 75 | 1023 | 10 | N 0 | |
| Oggi h: 04:00 | Sereno | 9 | 5 | 75 | 1023 | 10 | N 0 | |
| Oggi h: 03:30 | Sereno | 10 | 6 | 76 | 1023 | 10 | N 0 | |
| Oggi h: 03:00 | Sereno | 10 | 5 | 71 | 1023 | 10 | N 0 | |
| Oggi h: 02:30 | Sereno | 10 | 6 | 76 | 1023 | 10 | N 0 | |
| Oggi h: 02:00 | Sereno | 10 | 6 | 76 | 1024 | 10 | N 0 | |
| Oggi h: 01:30 | Sereno | 10 | 6 | 76 | 1024 | 10 | N 0 | |
| Oggi h: 01:00 | Sereno | 10 | 6 | 76 | 1024 | 10 | N 0 | |
| Oggi h: 00:30 | Sereno | 11 | 6 | 71 | 1024 | 10 | N 0 | |
| Oggi h: 00:00 | Sereno | 11 | 6 | 71 | 1024 | 10 | N 0 | |
| Ieri h: 23:30 | Sereno | 12 | 5 | 62 | 1024 | 10 | N 0 | |
| Ieri h: 23:00 | Sereno | 12 | 5 | 62 | 1024 | 10 | N 0 | |
| Ieri h: 22:30 | Sereno | 13 | 5 | 58 | 1024 | 10 | N 0 | |
| Ieri h: 22:00 | Sereno | 13 | 6 | 62 | 1024 | 10 | N 0 | |
| Ieri h: 21:30 | Sereno | 14 | 3 | 47 | 1024 | 10 | N 3.7 | |
| Ieri h: 21:00 | Sereno | 16 | 4 | 44 | 1024 | 10 | N 5.5 | |
| Ieri h: 20:30 | Sereno | 17 | 3 | 39 | 1024 | 10 | E/SE 11.1 | |
| Ieri h: 20:00 | Sereno | 17 | 3 | 39 | 1023 | 10 | SE 11.1 | |
| Ieri h: 19:30 | Sereno | 18 | 3 | 36 | 1023 | 10 | SE 13 | |
| Ieri h: 19:00 | Sereno | 19 | 2 | 32 | 1022 | 10 | E/SE 14.8 | |
| Ieri h: 18:30 | Sereno | 21 | 2 | 28 | 1022 | 10 | SE 13 | |
| Ieri h: 18:00 | Sereno | 24 | 1 | 22 | 1022 | 10 | E 13 | |
| Ieri h: 17:30 | Sereno | 25 | 1 | 20 | 1022 | 10 | E/SE 13 | |
| Ieri h: 17:00 | Sereno | 26 | 2 | 20 | 1022 | 10 | E/SE 16.7 | |
| Ieri h: 16:30 | Sereno | 26 | 0 | 18 | 1022 | 10 | S/SE 9.3 | |



